Time;durP1;ratioP1;P1;durP2;ratioP2;P2;SDS_P1;SDS_P2;PMS_P1;PMS_P2;Temp;Humidity;BMP_temperature;BMP_pressure;BME280_temperature;BME280_humidity;BME280_pressure;Samples;Min_cycle;Max_cycle;Signal;HPM_P1;HPM_P2
2021/09/30 00:00:18;;;;;;;3.40;1.33;;;9.30;69.70;;;;;;5038330;28;20041;-74
2021/09/30 00:02:44;;;;;;;5.20;1.50;;;9.20;69.20;;;;;;5038452;28;20013;-74
2021/09/30 00:05:11;;;;;;;4.28;1.40;;;9.20;69.60;;;;;;5037946;28;20053;-74
2021/09/30 00:07:38;;;;;;;4.30;1.40;;;9.20;69.80;;;;;;5037002;28;20427;-74
2021/09/30 00:10:07;;;;;;;5.10;1.83;;;9.10;69.80;;;;;;5033286;28;20030;-74
2021/09/30 00:12:38;;;;;;;3.35;1.42;;;9.00;70.40;;;;;;5038170;28;20453;-74
2021/09/30 00:15:07;;;;;;;5.25;1.90;;;9.00;70.00;;;;;;5037792;28;20029;-74
2021/09/30 00:34:02;;;;;;;9.70;3.05;;;8.70;70.10;;;;;;5037933;28;20059;-74
2021/09/30 00:47:39;;;;;;;5.68;2.05;;;8.50;70.50;;;;;;5037541;28;20032;-74
2021/09/30 00:55:52;;;;;;;6.45;1.70;;;8.40;70.50;;;;;;5037466;28;20476;-74
2021/09/30 02:30:27;;;;;;;3.67;1.40;;;7.30;71.80;;;;;;5040117;28;20032;-74
2021/09/30 02:58:27;;;;;;;5.05;1.60;;;7.00;72.00;;;;;;5039670;28;20071;-74
2021/09/30 03:01:04;;;;;;;3.83;1.40;;;7.00;72.20;;;;;;5039645;28;20080;-74
2021/09/30 03:03:33;;;;;;;5.68;1.92;;;7.00;72.20;;;;;;5039485;28;20487;-74
2021/09/30 03:05:59;;;;;;;4.38;1.67;;;7.00;72.40;;;;;;5039386;28;20112;-74
2021/09/30 03:08:27;;;;;;;3.25;1.65;;;6.90;72.20;;;;;;5034364;28;20872;-75
2021/09/30 03:10:55;;;;;;;5.57;2.10;;;6.90;72.70;;;;;;5039301;28;20099;-75
2021/09/30 03:13:23;;;;;;;4.03;1.58;;;6.90;72.40;;;;;;5039221;28;20381;-74
2021/09/30 03:16:04;;;;;;;5.38;2.28;;;6.90;72.30;;;;;;5038430;28;20026;-74
2021/09/30 03:22:13;;;;;;;3.28;1.60;;;6.90;72.40;;;;;;5039094;28;20413;-74
2021/09/30 03:23:57;;;;;;;5.80;1.60;;;6.80;72.40;;;;;;5038768;28;20451;-74
2021/09/30 03:26:25;;;;;;;4.97;1.50;;;6.80;72.40;;;;;;5038931;28;20025;-74
2021/09/30 03:28:52;;;;;;;2.60;1.10;;;6.80;72.50;;;;;;5037751;28;20052;-74
2021/09/30 03:31:18;;;;;;;3.75;1.40;;;6.80;72.40;;;;;;5038856;28;20026;-75
2021/09/30 03:33:46;;;;;;;4.18;1.55;;;6.70;72.00;;;;;;5038899;28;20097;-75
2021/09/30 03:36:13;;;;;;;3.28;1.48;;;6.70;72.40;;;;;;5038280;28;20053;-75
2021/09/30 03:38:39;;;;;;;4.35;1.60;;;6.70;72.60;;;;;;5038760;28;20074;-74
2021/09/30 03:41:04;;;;;;;3.67;1.48;;;6.70;72.60;;;;;;5038710;28;20021;-75
2021/09/30 03:43:30;;;;;;;3.72;1.35;;;6.70;72.60;;;;;;5038721;28;20395;-75
2021/09/30 03:45:56;;;;;;;6.22;1.83;;;6.70;72.60;;;;;;5038736;28;20036;-74
2021/09/30 03:48:22;;;;;;;3.17;1.25;;;6.70;72.80;;;;;;5037779;28;20037;-75
2021/09/30 03:51:35;;;;;;;3.78;1.45;;;6.60;72.70;;;;;;5037793;28;20051;-75
2021/09/30 04:01:19;;;;;;;5.25;1.55;;;6.60;73.00;;;;;;5038717;28;20043;-74
2021/09/30 04:03:45;;;;;;;4.50;1.73;;;6.50;72.80;;;;;;5038569;28;20100;-74
2021/09/30 04:06:12;;;;;;;3.13;1.30;;;6.50;72.90;;;;;;5038182;28;20113;-74
2021/09/30 04:08:38;;;;;;;2.58;1.15;;;6.50;72.60;;;;;;5032983;28;20033;-74
2021/09/30 04:11:05;;;;;;;4.05;1.40;;;6.50;72.70;;;;;;5038281;28;20399;-75
2021/09/30 04:13:31;;;;;;;4.07;1.92;;;6.50;72.80;;;;;;5038116;28;20036;-74
2021/09/30 04:15:56;;;;;;;5.60;2.00;;;6.50;72.90;;;;;;5038109;28;20380;-74
2021/09/30 04:18:22;;;;;;;4.93;1.73;;;6.50;72.60;;;;;;5038117;28;20089;-74
2021/09/30 04:20:48;;;;;;;4.32;1.42;;;6.50;72.80;;;;;;5037861;28;20017;-74
2021/09/30 04:23:14;;;;;;;5.10;1.80;;;6.40;72.60;;;;;;5037903;28;20022;-74
2021/09/30 04:25:40;;;;;;;3.67;1.58;;;6.40;72.90;;;;;;5038120;28;20026;-74
2021/09/30 04:28:06;;;;;;;4.10;1.55;;;6.40;73.50;;;;;;5037715;28;20033;-74
2021/09/30 04:30:32;;;;;;;3.97;1.60;;;6.40;72.90;;;;;;5036884;28;20361;-74
2021/09/30 04:32:58;;;;;;;2.97;1.50;;;6.40;73.00;;;;;;5036378;28;20059;-74
2021/09/30 04:35:24;;;;;;;4.43;1.58;;;6.30;72.90;;;;;;5036022;28;20036;-74
2021/09/30 04:37:49;;;;;;;5.13;1.55;;;6.30;72.60;;;;;;5036420;28;20028;-72
2021/09/30 04:40:15;;;;;;;4.07;1.90;;;6.30;73.10;;;;;;5036419;28;20110;-75
2021/09/30 04:42:42;;;;;;;4.65;1.48;;;6.30;73.10;;;;;;5037520;28;20037;-80
2021/09/30 04:45:08;;;;;;;3.25;1.50;;;6.30;73.20;;;;;;5037867;28;20639;-77
2021/09/30 04:47:34;;;;;;;3.85;1.30;;;6.20;73.00;;;;;;5037791;28;20025;-78
2021/09/30 04:50:00;;;;;;;3.13;1.42;;;6.20;73.10;;;;;;5036080;28;20036;-77
2021/09/30 04:52:26;;;;;;;5.43;1.48;;;6.20;73.20;;;;;;5037429;28;20037;-75
2021/09/30 04:54:52;;;;;;;5.07;1.60;;;6.10;73.10;;;;;;5037620;28;20021;-74
2021/09/30 04:57:18;;;;;;;4.50;1.60;;;6.10;73.00;;;;;;5036028;28;20125;-74
2021/09/30 04:59:44;;;;;;;3.95;1.60;;;6.10;73.00;;;;;;5037727;28;20096;-74
2021/09/30 05:02:09;;;;;;;6.15;1.85;;;6.10;73.10;;;;;;5037566;28;20057;-72
2021/09/30 05:04:35;;;;;;;5.30;1.75;;;6.10;73.10;;;;;;5037504;28;20134;-74
2021/09/30 05:07:01;;;;;;;3.13;1.75;;;6.10;73.10;;;;;;5036347;28;20030;-77
2021/09/30 05:09:28;;;;;;;6.13;1.52;;;6.00;73.40;;;;;;5031074;28;20029;-80
2021/09/30 05:11:57;;;;;;;3.83;1.80;;;6.00;73.00;;;;;;5037141;28;20536;-79
2021/09/30 05:14:23;;;;;;;4.70;2.00;;;6.00;73.10;;;;;;5037258;28;20037;-75
2021/09/30 05:16:49;;;;;;;4.25;2.00;;;6.00;73.20;;;;;;5037162;28;20507;-78
2021/09/30 05:19:16;;;;;;;4.28;2.40;;;6.00;73.20;;;;;;5037348;28;20100;-77
2021/09/30 05:21:42;;;;;;;5.40;2.50;;;6.00;73.20;;;;;;5037108;28;20392;-77
2021/09/30 05:24:08;;;;;;;5.80;2.45;;;6.00;73.20;;;;;;5037093;28;20100;-77
2021/09/30 05:26:34;;;;;;;6.85;2.47;;;6.00;73.10;;;;;;5037117;28;20056;-77
2021/09/30 05:29:03;;;;;;;3.28;1.92;;;6.00;72.80;;;;;;5035893;28;20026;-77
2021/09/30 05:31:30;;;;;;;5.00;1.73;;;6.00;73.00;;;;;;5037179;28;20029;-76
2021/09/30 05:33:56;;;;;;;4.82;1.80;;;6.00;73.00;;;;;;5037034;28;20119;-76
2021/09/30 05:36:22;;;;;;;4.32;1.70;;;6.00;72.90;;;;;;5036747;28;20115;-77
2021/09/30 05:38:48;;;;;;;5.05;1.92;;;5.90;73.30;;;;;;5037029;28;20554;-76
2021/09/30 05:41:15;;;;;;;3.80;1.58;;;6.00;73.50;;;;;;5037233;28;20019;-77
2021/09/30 05:43:47;;;;;;;4.40;1.60;;;5.90;73.50;;;;;;5037072;28;20081;-78
2021/09/30 05:46:15;;;;;;;4.05;1.70;;;5.90;74.10;;;;;;5023748;28;20040;-78
2021/09/30 05:48:41;;;;;;;4.85;1.70;;;5.90;73.20;;;;;;5035616;28;20117;-79
2021/09/30 05:51:07;;;;;;;4.28;1.92;;;5.90;73.70;;;;;;5036900;28;20037;-79
2021/09/30 05:53:33;;;;;;;4.18;1.80;;;5.90;73.80;;;;;;5036816;28;20026;-78
2021/09/30 05:55:59;;;;;;;3.00;1.40;;;5.90;73.80;;;;;;5037093;28;20477;-79
2021/09/30 05:58:25;;;;;;;4.32;1.50;;;5.90;73.90;;;;;;5036540;28;20025;-78
2021/09/30 06:16:27;;;;;;;6.30;2.38;;;5.80;73.90;;;;;;5040234;28;20026;-79
2021/09/30 06:18:53;;;;;;;6.88;2.70;;;5.80;73.60;;;;;;5040488;28;20373;-79
2021/09/30 06:21:20;;;;;;;4.07;2.75;;;5.80;73.70;;;;;;5038902;28;20021;-79
2021/09/30 06:23:46;;;;;;;5.25;3.00;;;5.80;73.70;;;;;;5040342;28;20024;-79
2021/09/30 06:26:12;;;;;;;5.05;2.65;;;5.80;73.60;;;;;;5040117;28;20108;-79
2021/09/30 06:28:38;;;;;;;6.53;3.20;;;5.80;73.50;;;;;;5040267;28;20026;-79
2021/09/30 06:31:04;;;;;;;8.02;3.60;;;5.80;74.00;;;;;;5040014;28;20032;-79
2021/09/30 06:33:30;;;;;;;8.63;3.28;;;5.80;74.10;;;;;;5040381;28;20029;-79
2021/09/30 06:35:56;;;;;;;6.32;3.30;;;5.90;74.00;;;;;;5038109;28;20368;-79
2021/09/30 06:38:22;;;;;;;9.77;3.13;;;5.90;73.70;;;;;;5040317;28;20021;-79
2021/09/30 06:40:49;;;;;;;13.77;3.83;;;5.90;73.90;;;;;;5039813;28;20101;-79
2021/09/30 06:43:15;;;;;;;10.23;3.00;;;5.90;74.00;;;;;;5038633;28;20480;-79
2021/09/30 06:45:41;;;;;;;8.35;3.85;;;5.90;74.00;;;;;;5040013;28;20037;-79
2021/09/30 06:48:07;;;;;;;8.85;4.18;;;6.00;74.10;;;;;;5039887;28;20029;-79
2021/09/30 06:50:33;;;;;;;10.40;3.47;;;6.00;74.00;;;;;;5039527;28;20052;-79
2021/09/30 06:53:01;;;;;;;8.48;4.22;;;6.00;74.00;;;;;;5039801;28;20032;-79
2021/09/30 06:55:27;;;;;;;9.32;3.35;;;6.10;74.00;;;;;;5039676;28;20056;-79
2021/09/30 06:57:53;;;;;;;7.03;2.80;;;6.10;74.10;;;;;;5039741;28;20472;-79
2021/09/30 07:00:21;;;;;;;6.60;2.47;;;6.10;74.50;;;;;;5038258;28;20048;-79
2021/09/30 07:02:47;;;;;;;5.45;3.03;;;6.20;74.40;;;;;;5039706;28;20026;-79
2021/09/30 07:05:14;;;;;;;6.30;2.92;;;6.20;74.40;;;;;;5039311;28;20029;-79
2021/09/30 07:07:40;;;;;;;7.10;3.25;;;6.20;74.30;;;;;;5037644;28;20073;-79
2021/09/30 07:10:09;;;;;;;7.70;2.65;;;6.20;73.90;;;;;;5036119;28;20480;-79
2021/09/30 07:12:36;;;;;;;7.32;3.88;;;6.30;74.10;;;;;;5038048;28;20028;-79
2021/09/30 07:15:03;;;;;;;6.30;2.50;;;6.30;74.40;;;;;;5039165;28;20029;-79
2021/09/30 07:17:29;;;;;;;7.80;2.60;;;6.40;75.30;;;;;;5039321;28;20053;-79
2021/09/30 07:19:57;;;;;;;4.65;2.15;;;6.50;74.90;;;;;;5037558;28;20029;-79
2021/09/30 07:22:24;;;;;;;6.70;2.17;;;6.50;74.40;;;;;;5039078;28;20476;-79
2021/09/30 07:24:50;;;;;;;4.93;2.17;;;6.60;74.60;;;;;;5038118;28;20049;-79
2021/09/30 07:27:16;;;;;;;7.32;2.40;;;6.60;74.60;;;;;;5037461;28;20451;-79
2021/09/30 07:29:42;;;;;;;6.85;2.38;;;6.70;76.40;;;;;;5038803;28;20022;-79
2021/09/30 07:32:08;;;;;;;7.55;2.58;;;6.80;76.80;;;;;;5038734;28;20456;-79
2021/09/30 07:34:34;;;;;;;6.82;2.00;;;6.90;76.50;;;;;;5038637;28;20055;-79
2021/09/30 07:37:00;;;;;;;5.32;2.35;;;6.90;75.70;;;;;;5037506;28;20104;-79
2021/09/30 07:39:28;;;;;;;6.47;2.20;;;7.00;77.40;;;;;;5038533;28;20017;-79
2021/09/30 07:41:54;;;;;;;5.10;2.45;;;7.10;76.80;;;;;;5038872;28;20025;-79
2021/09/30 07:44:20;;;;;;;6.75;2.50;;;7.20;77.70;;;;;;5037293;28;20016;-79
2021/09/30 07:46:47;;;;;;;5.55;2.40;;;7.20;77.60;;;;;;5037598;28;20026;-80
2021/09/30 07:49:13;;;;;;;6.45;2.30;;;7.30;77.20;;;;;;5038210;28;20032;-79
2021/09/30 07:51:39;;;;;;;7.32;2.40;;;7.40;76.80;;;;;;5037252;28;20097;-79
2021/09/30 07:54:06;;;;;;;5.05;2.40;;;7.50;76.40;;;;;;5038376;28;20029;-79
2021/09/30 07:56:33;;;;;;;8.00;2.90;;;7.60;77.00;;;;;;5037375;28;20120;-79
2021/09/30 07:58:59;;;;;;;7.28;2.40;;;7.70;77.70;;;;;;5038288;28;20033;-79
2021/09/30 08:01:25;;;;;;;6.15;2.03;;;7.70;77.00;;;;;;5037067;28;20025;-79
2021/09/30 08:03:51;;;;;;;5.28;1.90;;;7.80;76.30;;;;;;5038246;28;20392;-79
2021/09/30 08:06:17;;;;;;;4.75;2.20;;;7.90;76.50;;;;;;5038282;28;20025;-79
2021/09/30 08:08:43;;;;;;;7.18;2.35;;;8.00;77.40;;;;;;5033139;28;20030;-81
2021/09/30 08:11:09;;;;;;;6.07;2.30;;;8.20;77.10;;;;;;5038392;28;20033;-80
2021/09/30 08:13:36;;;;;;;3.45;1.90;;;8.30;78.00;;;;;;5037992;28;20021;-78
2021/09/30 08:16:02;;;;;;;6.43;2.22;;;8.40;78.10;;;;;;5037980;28;20489;-79
2021/09/30 08:18:27;;;;;;;5.85;2.45;;;8.60;77.70;;;;;;5037920;28;20025;-79
2021/09/30 08:20:54;;;;;;;5.45;1.90;;;8.70;77.70;;;;;;5037763;28;20161;-79
2021/09/30 08:23:20;;;;;;;6.65;2.00;;;9.00;77.80;;;;;;5037817;28;20452;-79
2021/09/30 08:25:47;;;;;;;8.05;2.40;;;9.20;77.90;;;;;;5036661;28;20552;-78
2021/09/30 08:28:13;;;;;;;7.43;1.60;;;9.60;79.60;;;;;;5037832;28;20025;-77
2021/09/30 08:30:40;;;;;;;6.68;1.60;;;10.30;81.10;;;;;;5037868;28;20465;-80
2021/09/30 08:33:08;;;;;;;6.47;1.50;;;11.40;81.20;;;;;;5037572;28;20023;-79
2021/09/30 08:35:35;;;;;;;6.95;1.40;;;12.50;79.50;;;;;;5037218;28;20056;-79
2021/09/30 08:38:01;;;;;;;10.35;1.90;;;13.50;77.40;;;;;;5037802;28;20021;-79
2021/09/30 08:40:27;;;;;;;6.28;1.25;;;14.50;76.00;;;;;;5037594;28;20512;-79
2021/09/30 08:42:54;;;;;;;6.55;1.20;;;15.40;74.30;;;;;;5037591;28;20451;-79
2021/09/30 08:45:20;;;;;;;8.15;1.02;;;16.20;72.10;;;;;;5037643;28;20025;-79
2021/09/30 08:47:56;;;;;;;7.40;1.33;;;16.80;70.20;;;;;;5037600;28;20044;-80
2021/09/30 08:50:23;;;;;;;6.53;1.50;;;17.30;68.20;;;;;;5037155;28;20025;-81
2021/09/30 08:52:49;;;;;;;4.13;1.25;;;17.70;66.00;;;;;;5037643;28;20067;-82
2021/09/30 08:55:15;;;;;;;5.30;1.00;;;17.70;64.40;;;;;;5037268;28;20538;-81
2021/09/30 08:57:51;;;;;;;4.22;1.23;;;18.00;65.30;;;;;;5037929;28;20109;-81
2021/09/30 09:00:19;;;;;;;6.10;1.15;;;18.50;63.70;;;;;;5036726;28;20028;-79
2021/09/30 09:02:51;;;;;;;7.95;1.30;;;19.00;63.50;;;;;;5036090;28;20058;-79
2021/09/30 09:05:18;;;;;;;6.32;1.20;;;19.50;60.50;;;;;;5037086;28;20021;-80
2021/09/30 09:07:58;;;;;;;5.18;1.00;;;19.90;58.80;;;;;;5035255;28;20076;-80
2021/09/30 09:10:33;;;;;;;8.77;1.20;;;20.20;58.50;;;;;;5036853;28;20021;-80
2021/09/30 09:13:05;;;;;;;4.68;1.15;;;20.70;56.00;;;;;;5037311;28;20018;-80
2021/09/30 09:15:58;;;;;;;5.07;1.30;;;21.10;53.40;;;;;;5037316;28;20021;-79
2021/09/30 09:18:30;;;;;;;7.00;1.25;;;21.30;52.20;;;;;;5037334;28;20022;-79
2021/09/30 09:21:08;;;;;;;6.10;1.20;;;21.50;53.30;;;;;;5037106;28;20044;-79
2021/09/30 09:23:52;;;;;;;8.70;1.67;;;21.80;52.10;;;;;;5037327;28;20036;-79
2021/09/30 09:26:40;;;;;;;6.63;1.65;;;22.10;52.50;;;;;;5037391;28;20056;-80
2021/09/30 09:29:07;;;;;;;5.05;1.23;;;22.30;50.50;;;;;;5037315;28;20083;-79
2021/09/30 09:32:05;;;;;;;4.32;1.13;;;22.50;51.20;;;;;;5037302;28;20032;-80
2021/09/30 09:34:38;;;;;;;8.10;1.50;;;22.70;51.70;;;;;;5034742;28;20037;-79
2021/09/30 09:37:34;;;;;;;6.28;1.60;;;23.00;50.50;;;;;;5037150;28;20052;-80
2021/09/30 09:40:16;;;;;;;5.65;1.27;;;23.20;49.20;;;;;;5037312;28;20021;-80
2021/09/30 09:42:42;;;;;;;6.47;1.40;;;23.40;50.70;;;;;;5036937;28;20444;-80
2021/09/30 09:45:13;;;;;;;6.43;1.25;;;23.70;49.10;;;;;;5037038;28;20060;-80
2021/09/30 09:47:42;;;;;;;5.07;1.25;;;23.80;50.30;;;;;;5036996;28;20435;-79
2021/09/30 09:50:08;;;;;;;6.72;1.52;;;24.00;50.00;;;;;;5040168;28;20026;-79
2021/09/30 09:52:54;;;;;;;6.20;1.35;;;24.30;49.90;;;;;;5040896;28;20056;-80
2021/09/30 09:55:27;;;;;;;4.60;1.17;;;24.60;49.10;;;;;;5040443;28;20381;-80
2021/09/30 09:58:04;;;;;;;3.88;0.90;;;24.90;49.50;;;;;;5040997;28;20037;-80
2021/09/30 10:00:34;;;;;;;6.65;1.42;;;25.20;48.60;;;;;;5040864;28;20017;-80
2021/09/30 10:03:15;;;;;;;5.55;1.20;;;25.40;49.00;;;;;;5040721;28;20049;-80
2021/09/30 10:05:42;;;;;;;7.28;1.70;;;25.70;49.10;;;;;;5040552;28;20021;-80
2021/09/30 10:08:09;;;;;;;6.50;1.60;;;26.00;49.00;;;;;;5035553;28;20049;-80
2021/09/30 10:10:36;;;;;;;9.85;1.60;;;26.20;46.90;;;;;;5040546;28;20021;-80
2021/09/30 10:13:03;;;;;;;6.22;1.70;;;26.40;47.90;;;;;;5039113;28;20419;-80
2021/09/30 10:15:28;;;;;;;5.15;1.27;;;26.70;44.30;;;;;;5040479;28;20025;-80
2021/09/30 10:17:55;;;;;;;6.30;1.25;;;26.80;45.80;;;;;;5040487;28;20032;-80
2021/09/30 10:20:21;;;;;;;6.63;1.50;;;26.80;47.10;;;;;;5040289;28;20024;-80
2021/09/30 10:22:51;;;;;;;5.57;1.40;;;27.00;44.50;;;;;;5040627;28;20087;-81
2021/09/30 10:25:18;;;;;;;6.38;1.63;;;27.20;45.30;;;;;;5039375;28;20049;-81
2021/09/30 10:27:44;;;;;;;5.75;1.13;;;27.20;44.50;;;;;;5040202;28;20033;-81
2021/09/30 10:30:34;;;;;;;4.90;1.38;;;27.30;43.90;;;;;;5040335;28;20022;-80
2021/09/30 10:33:03;;;;;;;5.10;1.20;;;27.50;43.80;;;;;;5036666;28;20095;-81
2021/09/30 10:35:34;;;;;;;6.20;1.27;;;27.60;43.30;;;;;;5039696;28;20046;-78
2021/09/30 10:38:33;;;;;;;4.60;0.93;;;27.80;41.60;;;;;;5038665;28;20038;-81
2021/09/30 10:41:17;;;;;;;5.00;1.15;;;27.80;41.80;;;;;;5040003;28;20045;-80
2021/09/30 10:43:48;;;;;;;8.90;1.40;;;28.10;42.20;;;;;;5040010;28;20032;-81
2021/09/30 10:46:45;;;;;;;5.70;1.42;;;28.00;41.40;;;;;;5038619;28;20037;-80
2021/09/30 10:49:28;;;;;;;5.28;1.20;;;27.90;40.80;;;;;;5039364;28;20120;-80
2021/09/30 10:52:18;;;;;;;5.00;0.95;;;27.90;39.00;;;;;;5039656;28;20053;-81
2021/09/30 10:55:06;;;;;;;5.03;1.20;;;28.10;40.50;;;;;;5039595;28;20464;-81
2021/09/30 10:57:48;;;;;;;4.50;1.15;;;28.20;41.00;;;;;;5039923;28;20025;-80
2021/09/30 11:00:17;;;;;;;5.05;1.10;;;28.30;42.20;;;;;;5039525;28;20027;-81
2021/09/30 11:03:01;;;;;;;4.25;0.90;;;28.40;39.00;;;;;;5039894;28;20395;-80
2021/09/30 11:05:38;;;;;;;6.40;1.15;;;28.40;40.50;;;;;;5039115;28;20032;-80
2021/09/30 11:08:32;;;;;;;4.85;1.55;;;28.30;39.90;;;;;;5034726;28;20092;-80
2021/09/30 11:11:07;;;;;;;5.95;1.10;;;28.40;40.70;;;;;;5030111;28;20052;-80
2021/09/30 11:13:38;;;;;;;3.92;0.90;;;28.40;40.90;;;;;;5039525;28;20046;-80
2021/09/30 11:16:05;;;;;;;5.20;1.20;;;28.50;40.70;;;;;;5039516;28;20113;-81
2021/09/30 11:18:36;;;;;;;6.63;1.20;;;28.50;40.00;;;;;;5039168;28;20049;-80
2021/09/30 11:21:02;;;;;;;7.68;1.60;;;28.50;40.30;;;;;;5039141;28;20365;-82
2021/09/30 11:23:51;;;;;;;5.03;0.90;;;28.50;40.40;;;;;;5039144;28;20079;-80
2021/09/30 11:26:17;;;;;;;4.82;1.20;;;28.40;39.50;;;;;;5039268;28;20040;-80
2021/09/30 11:28:42;;;;;;;5.75;1.50;;;28.50;40.00;;;;;;5039224;28;20191;-80
2021/09/30 11:31:28;;;;;;;5.28;1.27;;;28.60;40.70;;;;;;5038995;28;20025;-80
2021/09/30 11:33:57;;;;;;;5.07;1.20;;;28.60;39.90;;;;;;5038950;28;20064;-80
2021/09/30 11:36:30;;;;;;;6.55;1.40;;;28.30;39.70;;;;;;5038620;28;20052;-80
2021/09/30 11:38:57;;;;;;;6.63;1.65;;;28.20;40.00;;;;;;5038885;28;20021;-80
2021/09/30 11:41:30;;;;;;;5.18;1.15;;;28.00;40.40;;;;;;5039197;28;20025;-80
2021/09/30 11:43:56;;;;;;;9.77;1.52;;;27.70;40.70;;;;;;5038652;28;20047;-80
2021/09/30 11:46:28;;;;;;;5.70;1.60;;;27.50;41.50;;;;;;5039051;28;20037;-80
2021/09/30 11:48:55;;;;;;;5.05;1.52;;;27.30;41.20;;;;;;5038723;28;20029;-80
2021/09/30 11:51:34;;;;;;;7.40;1.50;;;27.20;41.80;;;;;;5038750;28;20083;-80
2021/09/30 11:54:01;;;;;;;5.72;1.17;;;27.00;42.00;;;;;;5038755;28;20025;-80
2021/09/30 11:56:28;;;;;;;6.57;1.55;;;26.70;42.00;;;;;;5038687;28;20035;-80
2021/09/30 11:58:58;;;;;;;4.43;1.23;;;26.50;42.30;;;;;;5037170;28;20553;-80
2021/09/30 12:01:44;;;;;;;8.95;1.75;;;26.40;42.40;;;;;;5038611;28;20022;-82
2021/09/30 12:04:12;;;;;;;5.30;1.48;;;26.40;42.60;;;;;;5038401;28;20034;-80
2021/09/30 12:06:40;;;;;;;5.13;1.80;;;26.10;41.40;;;;;;5038244;28;20038;-80
2021/09/30 12:09:08;;;;;;;8.68;2.10;;;25.90;42.20;;;;;;5033115;28;20032;-79
2021/09/30 12:11:38;;;;;;;5.70;1.48;;;25.60;42.40;;;;;;5037614;28;20026;-80
2021/09/30 12:14:08;;;;;;;7.28;1.88;;;25.50;43.30;;;;;;5038227;28;20080;-80
2021/09/30 12:16:57;;;;;;;5.38;1.30;;;25.50;42.80;;;;;;5037981;28;20437;-80
2021/09/30 12:19:30;;;;;;;4.50;1.23;;;25.30;43.00;;;;;;5038109;28;20074;-80
2021/09/30 12:21:56;;;;;;;6.05;1.40;;;25.00;43.10;;;;;;5038275;28;20085;-79
2021/09/30 12:24:26;;;;;;;4.07;1.40;;;24.70;42.90;;;;;;5037815;28;20028;-80
2021/09/30 12:26:53;;;;;;;7.55;1.20;;;24.60;44.40;;;;;;5038098;28;20021;-80
2021/09/30 12:29:20;;;;;;;6.65;1.40;;;24.60;44.80;;;;;;5038002;28;20025;-80
2021/09/30 12:32:01;;;;;;;7.38;1.75;;;24.50;44.60;;;;;;5037998;28;20064;-80
2021/09/30 12:34:27;;;;;;;4.30;1.40;;;24.30;44.20;;;;;;5037538;28;20101;-80
2021/09/30 12:36:53;;;;;;;4.75;1.15;;;24.10;44.10;;;;;;5036677;28;20523;-80
2021/09/30 12:39:26;;;;;;;8.75;1.52;;;24.00;44.90;;;;;;5037646;28;20052;-80
2021/09/30 12:41:53;;;;;;;5.30;1.20;;;24.00;44.50;;;;;;5038051;28;20033;-80
2021/09/30 12:44:20;;;;;;;7.80;1.65;;;23.90;44.60;;;;;;5037668;28;20460;-79
2021/09/30 12:46:51;;;;;;;6.97;1.20;;;23.90;45.00;;;;;;5038146;28;20492;-80
2021/09/30 12:49:19;;;;;;;5.93;1.60;;;23.80;45.40;;;;;;5037339;28;20373;-79
2021/09/30 12:51:45;;;;;;;4.93;1.10;;;23.60;45.20;;;;;;5037890;28;20041;-79
2021/09/30 12:54:11;;;;;;;6.88;1.13;;;23.60;45.60;;;;;;5037432;28;20029;-79
2021/09/30 12:56:38;;;;;;;4.63;1.50;;;23.50;46.00;;;;;;5037653;28;20495;-82
2021/09/30 12:59:14;;;;;;;5.75;1.08;;;23.40;45.70;;;;;;5037876;28;20021;-80
2021/09/30 13:01:43;;;;;;;5.07;1.08;;;23.30;46.10;;;;;;5037699;28;20025;-79
2021/09/30 13:04:27;;;;;;;7.63;1.60;;;23.10;45.80;;;;;;5037273;28;20499;-79
2021/09/30 13:06:59;;;;;;;4.45;1.23;;;22.90;46.50;;;;;;5037425;28;20403;-79
2021/09/30 13:09:29;;;;;;;5.65;1.23;;;22.70;46.50;;;;;;5032340;28;20100;-79
2021/09/30 13:12:00;;;;;;;6.50;0.98;;;22.60;46.90;;;;;;5037194;28;20075;-79
2021/09/30 13:14:36;;;;;;;6.47;1.40;;;22.60;47.10;;;;;;5037634;28;20026;-80
2021/09/30 13:17:20;;;;;;;8.63;1.38;;;22.60;47.20;;;;;;5037474;28;20468;-80
2021/09/30 13:20:14;;;;;;;5.35;1.10;;;22.70;47.70;;;;;;5036823;28;20025;-79
2021/09/30 13:22:42;;;;;;;4.18;1.50;;;22.80;47.60;;;;;;5037224;28;20029;-81
2021/09/30 13:25:17;;;;;;;8.02;0.90;;;22.80;46.90;;;;;;5040857;28;20109;-80
2021/09/30 13:27:45;;;;;;;4.00;0.80;;;22.80;46.40;;;;;;5041364;28;20037;-80
2021/09/30 13:30:14;;;;;;;6.57;1.10;;;22.60;46.60;;;;;;5041430;28;20018;-79
2021/09/30 13:32:41;;;;;;;5.18;1.10;;;22.60;46.90;;;;;;5041365;28;20435;-81
2021/09/30 13:35:09;;;;;;;5.50;1.40;;;22.50;47.30;;;;;;5041133;28;20022;-79
2021/09/30 13:37:36;;;;;;;4.43;0.80;;;22.30;46.80;;;;;;5040909;28;20096;-80
2021/09/30 13:40:03;;;;;;;5.00;1.25;;;22.10;47.20;;;;;;5041079;28;20021;-79
2021/09/30 13:42:31;;;;;;;6.38;1.00;;;22.00;47.60;;;;;;5039648;28;20496;-79
2021/09/30 13:44:57;;;;;;;4.72;0.90;;;21.90;48.30;;;;;;5041355;28;20025;-79
2021/09/30 13:47:28;;;;;;;3.90;0.90;;;21.80;48.20;;;;;;5040989;28;20087;-80
2021/09/30 13:49:55;;;;;;;5.60;1.02;;;21.90;48.10;;;;;;5040818;28;20087;-79
2021/09/30 13:52:21;;;;;;;6.10;1.33;;;21.80;47.70;;;;;;5040861;28;20025;-80
2021/09/30 13:54:47;;;;;;;4.65;0.95;;;21.80;48.00;;;;;;5040826;28;20060;-80
2021/09/30 13:57:13;;;;;;;5.97;0.98;;;21.70;48.30;;;;;;5040854;28;20029;-79
2021/09/30 13:59:39;;;;;;;4.18;0.75;;;21.60;48.70;;;;;;5041098;28;20523;-80
2021/09/30 14:02:06;;;;;;;6.72;1.02;;;21.70;49.40;;;;;;5040635;28;20095;-79
2021/09/30 14:04:32;;;;;;;4.68;1.05;;;21.80;49.20;;;;;;5040572;28;20022;-82
2021/09/30 14:06:58;;;;;;;7.97;1.20;;;21.80;48.30;;;;;;5040571;28;20107;-79
2021/09/30 14:09:25;;;;;;;6.80;1.00;;;21.70;48.40;;;;;;5036017;28;20481;-81
2021/09/30 14:11:52;;;;;;;3.17;0.90;;;21.60;48.50;;;;;;5040516;28;20029;-80
2021/09/30 14:14:19;;;;;;;5.10;1.13;;;21.60;49.20;;;;;;5039469;28;20028;-80
2021/09/30 14:16:48;;;;;;;6.43;1.15;;;21.50;49.20;;;;;;5040261;28;20025;-81
2021/09/30 14:19:18;;;;;;;4.20;0.98;;;21.40;49.10;;;;;;5040144;28;20499;-81
2021/09/30 14:21:44;;;;;;;5.88;1.00;;;21.40;49.50;;;;;;5040263;28;20022;-81
2021/09/30 14:24:10;;;;;;;5.25;1.08;;;21.30;49.20;;;;;;5040234;28;20021;-80
2021/09/30 14:26:36;;;;;;;5.35;0.90;;;21.30;49.50;;;;;;5040283;28;20025;-82
2021/09/30 14:29:03;;;;;;;8.10;1.05;;;21.30;49.80;;;;;;5040217;28;20037;-79
2021/09/30 14:31:29;;;;;;;3.85;0.70;;;21.30;49.10;;;;;;5040200;28;20025;-79
2021/09/30 14:33:55;;;;;;;4.07;1.00;;;21.30;50.00;;;;;;5039612;28;20040;-79
2021/09/30 14:36:21;;;;;;;4.40;1.02;;;21.30;50.20;;;;;;5039476;28;20083;-79
2021/09/30 14:38:47;;;;;;;4.28;0.98;;;21.30;50.50;;;;;;5039985;28;20025;-79
2021/09/30 14:41:13;;;;;;;3.92;0.90;;;21.40;49.90;;;;;;5040338;28;20128;-79
2021/09/30 14:43:39;;;;;;;8.18;1.33;;;21.30;49.30;;;;;;5040139;28;20029;-79
2021/09/30 14:46:06;;;;;;;8.13;1.55;;;21.20;49.60;;;;;;5040194;28;20025;-80
2021/09/30 14:48:33;;;;;;;5.25;1.25;;;21.20;49.60;;;;;;5040030;28;20029;-79
2021/09/30 14:51:01;;;;;;;4.82;0.88;;;21.20;50.20;;;;;;5038353;28;20029;-80
2021/09/30 14:53:28;;;;;;;8.70;1.30;;;21.20;49.80;;;;;;5039812;28;20029;-79
2021/09/30 14:55:54;;;;;;;6.70;1.00;;;21.10;50.30;;;;;;5039706;28;20032;-79
2021/09/30 14:58:19;;;;;;;4.10;0.80;;;21.10;50.00;;;;;;5040093;28;20468;-79
2021/09/30 15:00:45;;;;;;;6.13;1.05;;;21.00;50.40;;;;;;5039845;28;20029;-81
2021/09/30 15:03:11;;;;;;;8.38;1.20;;;21.00;50.50;;;;;;5039813;28;20033;-80
2021/09/30 15:05:39;;;;;;;5.13;0.90;;;20.90;50.00;;;;;;5039545;28;20045;-79
2021/09/30 15:08:05;;;;;;;3.25;0.93;;;20.80;50.20;;;;;;5034833;28;20484;-79
2021/09/30 15:10:31;;;;;;;3.90;0.90;;;20.70;50.90;;;;;;5039777;28;20103;-79
2021/09/30 15:12:57;;;;;;;4.80;0.93;;;20.60;51.30;;;;;;5039512;28;20025;-79
2021/09/30 15:15:24;;;;;;;2.63;0.70;;;20.60;51.50;;;;;;5039486;28;20024;-80
2021/09/30 15:17:55;;;;;;;7.55;1.23;;;20.60;51.70;;;;;;5039158;28;21169;-80
2021/09/30 15:23:04;;;;;;;5.95;1.00;;;20.50;51.20;;;;;;5039164;28;20021;-79
2021/09/30 15:25:31;;;;;;;6.75;1.08;;;20.40;50.80;;;;;;5037838;28;20028;-80
2021/09/30 15:27:59;;;;;;;5.78;1.00;;;20.40;51.40;;;;;;5037756;28;20025;-78
2021/09/30 15:30:25;;;;;;;5.40;1.00;;;20.30;51.70;;;;;;5039282;28;20024;-79
2021/09/30 15:32:53;;;;;;;6.95;1.10;;;20.40;51.60;;;;;;5039028;28;20060;-79
2021/09/30 15:35:19;;;;;;;3.70;0.90;;;20.30;51.60;;;;;;5037732;28;20028;-79
2021/09/30 15:37:45;;;;;;;5.47;1.10;;;20.30;51.60;;;;;;5037337;28;20416;-79
2021/09/30 15:40:13;;;;;;;4.32;1.23;;;20.20;52.20;;;;;;5038973;28;20022;-79
2021/09/30 15:42:39;;;;;;;8.15;1.70;;;20.20;51.90;;;;;;5038684;28;20018;-79
2021/09/30 15:45:06;;;;;;;4.50;1.00;;;20.20;52.40;;;;;;5039066;28;20467;-79
2021/09/30 15:47:32;;;;;;;5.18;1.10;;;20.10;52.50;;;;;;5037766;28;20036;-79
2021/09/30 15:49:57;;;;;;;3.58;1.00;;;20.10;52.30;;;;;;5038641;28;20022;-79
2021/09/30 15:52:23;;;;;;;5.15;1.45;;;20.00;52.40;;;;;;5038518;28;20037;-79
2021/09/30 15:54:49;;;;;;;4.25;0.88;;;19.90;52.60;;;;;;5038726;28;20021;-79
2021/09/30 15:57:15;;;;;;;5.75;1.13;;;19.80;52.50;;;;;;5038453;28;20104;-79
2021/09/30 15:59:41;;;;;;;7.13;1.10;;;19.80;53.00;;;;;;5038688;28;20014;-79